Location Robbinsville, NJ, US

ob W2RIU 250330Z AUTO 19002G03KT 04/M01 A2996 RMK SLPNO 

2017.11.25 0330 UTC
Wind from the S (190 degrees) at 2 MPH (2 KT) gusting to 4 MPH (3 KT)
Visibility    Mile(s)
Temperature 39.8 F (4 C)
Dew Point 30.1 F (-1 C)
Relative Humidity 68%
Pressure   29.969 in. Hg (1015 hPa)
Rain  0.00 in.
Daily Rain 0.00 in.

Station Name  APRS-W2RIU
Longitude, Latitude  -74.57827, 40.21452
Elevation 161
Station URL www.PineyPaddlers.com
Software Type Cumulus v1.9.4